.
WxDataArchive / Data Records for 2014-09-03
2014-09-02 September 2014 2014-09-04

Data Records for Wednesday, 03 September 2014

Time	Temp	Chill	HIndex	Humid	Dewpt	 Wind 	HiWind	WindDir	Rain 	Barom
-----	----	-----	------	-----	-----	------	------	-------	-----	-----
00:00	64.5	64.5	64.5	92	62.1	0	0	---	0.00	29.950 
00:05	64.5	64.5	64.5	92	62.1	0	0	---	0.00	29.950 
00:10	64.5	64.5	64.5	92	62.1	0	0	---	0.00	29.950 
00:15	64.3	64.3	64.3	92	61.9	0	0	---	0.00	29.958 
00:20	64.3	64.3	64.3	92	61.9	0	0	---	0.00	29.958 
00:25	64.2	64.2	64.2	92	61.8	0	0	---	0.00	29.958 
00:30	64.2	64.2	64.2	93	62.1	0	0	---	0.00	29.955 
00:35	64.2	64.2	64.2	93	62.1	0	0	---	0.00	29.955 
00:40	64.0	64.0	64.0	93	61.9	0	0	---	0.00	29.955 
00:45	63.9	63.9	63.9	93	61.8	0	0	---	0.00	29.952 
00:50	63.9	63.9	63.9	93	61.8	0	0	---	0.00	29.952 
00:55	63.9	63.9	63.9	93	61.8	0	0	---	0.00	29.952 
01:00	63.7	63.7	63.7	93	61.6	0	0	---	0.00	29.955 
01:05	63.7	63.7	63.7	93	61.6	0	0	---	0.00	29.955 
01:10	63.7	63.7	63.7	93	61.6	0	0	---	0.00	29.955 
01:15	63.5	63.5	63.5	93	61.4	0	0	---	0.00	29.953 
01:20	63.5	63.5	63.5	93	61.4	0	0	---	0.00	29.953 
01:25	63.5	63.5	63.5	93	61.4	0	0	---	0.00	29.953 
01:30	63.5	63.5	63.5	94	61.7	0	0	---	0.00	29.954 
01:35	63.4	63.4	63.4	94	61.6	0	0	---	0.00	29.954 
01:40	63.2	63.2	63.2	94	61.4	0	0	---	0.00	29.954 
01:45	63.2	63.2	63.2	94	61.4	0	1	292	0.00	29.956 
01:50	63.4	63.4	63.4	94	61.6	0	0	---	0.00	29.956 
01:55	63.4	63.4	63.4	94	61.6	0	0	---	0.00	29.956 
02:00	63.2	63.2	63.2	94	61.4	0	0	---	0.00	29.955 
02:05	63.2	63.2	63.2	94	61.4	0	0	---	0.00	29.955 
02:10	63.2	63.2	63.2	94	61.4	0	0	---	0.00	29.955 
02:15	63.1	63.1	63.1	94	61.3	0	0	---	0.00	29.954 
02:20	63.1	63.1	63.1	94	61.3	0	0	---	0.00	29.954 
02:25	63.1	63.1	63.1	94	61.3	0	0	---	0.00	29.954 
02:30	62.9	62.9	62.9	94	61.1	0	0	---	0.00	29.954 
02:35	62.9	62.9	62.9	94	61.1	0	0	---	0.00	29.954 
02:40	62.7	62.7	62.7	94	60.9	0	0	---	0.00	29.954 
02:45	62.7	62.7	62.7	94	60.9	0	0	---	0.00	29.953 
02:50	62.7	62.7	62.7	95	61.2	0	0	---	0.00	29.953 
02:55	62.6	62.6	62.6	95	61.1	0	0	---	0.00	29.953 
03:00	62.6	62.6	62.6	94	60.8	0	0	---	0.00	29.952 
03:05	62.4	62.4	62.4	95	60.9	0	0	---	0.00	29.952 
03:10	62.3	62.3	62.3	95	60.8	0	0	---	0.00	29.952 
03:15	62.3	62.3	62.3	95	60.8	0	0	---	0.00	29.951 
03:20	62.1	62.1	62.1	95	60.6	0	0	---	0.00	29.951 
03:25	62.0	62.0	62.0	95	60.5	0	0	---	0.00	29.951 
03:30	62.1	62.1	62.1	95	60.6	0	0	---	0.00	29.951 
03:35	62.1	62.1	62.1	95	60.6	0	0	---	0.00	29.951 
03:40	62.0	62.0	62.0	95	60.5	0	0	---	0.00	29.951 
03:45	62.1	62.1	62.1	95	60.6	0	0	---	0.00	29.949 
03:50	62.1	62.1	62.1	95	60.6	0	0	---	0.00	29.949 
03:55	62.1	62.1	62.1	95	60.6	0	0	---	0.00	29.949 
04:00	62.0	62.0	62.0	95	60.5	0	0	---	0.00	29.951 
04:05	62.0	62.0	62.0	95	60.5	0	0	---	0.00	29.951 
04:10	62.0	62.0	62.0	95	60.5	0	0	---	0.00	29.951 
04:15	62.0	62.0	62.0	95	60.5	0	0	---	0.00	29.951 
04:20	62.1	62.1	62.1	95	60.6	0	0	---	0.00	29.951 
04:25	62.3	62.3	62.3	95	60.8	0	0	---	0.00	29.951 
04:30	62.4	62.4	62.4	95	60.9	0	0	---	0.00	29.953 
04:35	62.4	62.4	62.4	95	60.9	0	0	---	0.00	29.953 
04:40	62.3	62.3	62.3	95	60.8	0	0	---	0.00	29.953 
04:45	62.3	62.3	62.3	95	60.8	0	0	---	0.00	29.955 
04:50	62.3	62.3	62.3	95	60.8	0	0	---	0.00	29.955 
04:55	62.1	62.1	62.1	95	60.6	0	0	---	0.00	29.955 
05:00	62.0	62.0	62.0	95	60.5	0	0	---	0.00	29.964 
05:05	62.1	62.1	62.1	96	60.9	0	0	---	0.00	29.964 
05:10	62.6	62.6	62.6	96	61.4	0	0	---	0.00	29.964 
05:15	62.9	62.9	62.9	96	61.7	0	0	---	0.00	29.967 
05:20	63.2	63.2	63.2	96	62.0	0	0	---	0.00	29.967 
05:25	63.5	63.5	63.5	96	62.3	0	0	---	0.00	29.967 
05:30	64.3	64.3	64.3	96	63.1	0	0	---	0.00	29.969 
05:35	64.5	64.5	64.5	96	63.3	0	0	---	0.00	29.969 
05:40	64.8	64.8	64.8	96	63.6	0	0	---	0.00	29.969 
05:45	64.8	64.8	64.8	96	63.6	0	0	---	0.00	29.969 
05:50	64.7	64.7	64.7	96	63.5	0	0	---	0.00	29.969 
05:55	64.5	64.5	64.5	96	63.3	0	0	---	0.00	29.969 
06:00	64.5	64.5	64.5	96	63.3	0	0	---	0.00	29.968 
06:05	64.3	64.3	64.3	96	63.1	0	0	---	0.00	29.968 
06:10	63.9	63.9	63.9	95	62.4	0	0	---	0.00	29.968 
06:15	63.5	63.5	63.5	96	62.3	0	0	---	0.00	29.971 
06:20	63.2	63.2	63.2	95	61.7	0	0	---	0.00	29.971 
06:25	62.9	62.9	62.9	96	61.7	0	0	---	0.00	29.971 
06:30	62.6	62.6	62.6	96	61.4	0	0	---	0.00	29.973 
06:35	62.4	62.4	62.4	96	61.2	0	0	---	0.00	29.973 
06:40	62.1	62.1	62.1	96	60.9	0	0	---	0.00	29.973 
06:45	62.0	62.0	62.0	96	60.8	0	0	---	0.00	29.978 
06:50	61.8	61.8	61.8	96	60.6	0	0	---	0.00	29.978 
06:55	61.6	61.6	61.6	96	60.4	0	0	---	0.00	29.978 
07:00	61.5	61.5	61.5	96	60.3	0	0	---	0.00	29.985 
07:05	61.3	61.3	61.3	96	60.1	0	0	---	0.00	29.985 
07:10	61.3	61.3	61.3	96	60.1	0	0	---	0.00	29.985 
07:15	61.2	61.2	61.2	96	60.0	0	0	---	0.00	29.991 
07:20	61.0	61.0	61.0	96	59.8	0	0	---	0.00	29.991 
07:25	60.9	60.9	60.9	96	59.7	0	0	---	0.00	29.991 
07:30	60.9	60.9	60.9	96	59.7	0	0	---	0.00	29.997 
07:35	60.9	60.9	60.9	96	59.7	0	0	---	0.00	29.997 
07:40	60.9	60.9	60.9	96	59.7	0	0	---	0.00	29.997 
07:45	61.0	61.0	61.0	96	59.8	0	0	---	0.00	30.005 
07:50	61.0	61.0	61.0	96	59.8	0	0	---	0.00	30.005 
07:55	61.2	61.2	61.2	96	60.0	0	0	---	0.00	30.005 
08:00	61.6	61.6	61.6	96	60.4	0	0	---	0.00	30.006 
08:05	62.0	62.0	62.0	96	60.8	0	0	---	0.00	30.006 
08:10	62.4	62.4	62.4	96	61.2	0	0	---	0.00	30.006 
08:15	63.4	63.4	63.4	96	62.2	0	0	---	0.00	30.010 
08:20	64.0	64.0	64.0	96	62.8	0	0	---	0.00	30.010 
08:25	64.5	64.5	64.5	96	63.3	0	0	---	0.00	30.010 
08:30	65.0	65.0	65.0	96	63.8	0	0	---	0.00	30.012 
08:35	65.3	65.3	65.3	96	64.1	0	0	---	0.00	30.012 
08:40	65.8	65.8	65.8	96	64.6	0	0	---	0.00	30.012 
08:45	66.1	66.1	66.1	96	64.9	0	0	---	0.00	30.015 
08:50	66.3	66.3	66.3	96	65.1	0	0	---	0.00	30.015 
08:55	66.4	66.4	66.4	96	65.2	0	0	---	0.00	30.015 
09:00	66.6	66.6	66.6	96	65.4	0	1	292	0.00	30.017 
09:05	66.6	66.6	66.6	96	65.4	0	0	---	0.00	30.017 
09:10	66.8	66.8	66.8	96	65.6	0	0	---	0.00	30.017 
09:15	66.9	66.9	66.9	96	65.7	0	0	---	0.00	30.021 
09:20	67.1	67.1	67.1	96	65.9	0	0	---	0.00	30.021 
09:25	67.4	67.4	67.4	96	66.2	0	0	---	0.00	30.021 
09:30	67.8	67.8	67.8	96	66.6	0	0	---	0.00	30.026 
09:35	68.1	68.1	68.1	96	66.9	0	1	292	0.00	30.026 
09:40	68.4	68.4	68.4	95	66.9	0	1	292	0.00	30.026 
09:45	69.1	69.1	69.1	95	67.6	0	0	---	0.00	30.023 
09:50	69.4	69.4	69.4	93	67.3	0	1	292	0.00	30.023 
09:55	69.9	69.9	69.9	92	67.5	0	1	292	0.00	30.023 
10:00	70.4	70.4	70.4	90	67.3	0	1	292	0.00	30.031 
10:05	71.1	71.1	71.1	86	66.7	0	1	292	0.00	30.031 
10:10	71.8	71.8	71.8	82	66.0	0	2	292	0.00	30.031 
10:15	72.3	72.3	72.3	77	64.7	0	2	292	0.00	30.024 
10:20	73.2	73.2	73.2	75	64.8	0	1	292	0.00	30.024 
10:25	73.5	73.5	73.5	69	62.7	0	2	292	0.00	30.024 
10:30	74.4	74.4	74.4	69	63.5	0	2	292	0.00	30.023 
10:35	75.1	75.1	76.9	69	64.2	0	2	292	0.00	30.023 
10:40	76.0	76.0	77.8	66	63.8	0	1	292	0.00	30.023 
10:45	76.7	76.7	78.5	64	63.6	0	1	292	0.00	30.025 
10:50	77.6	77.6	79.2	58	61.6	0	2	292	0.00	30.025 
10:55	78.3	78.3	79.8	57	61.8	0	3	292	0.00	30.025 
11:00	78.5	78.5	79.8	54	60.4	0	3	292	0.00	30.017 
11:05	78.8	78.8	80.2	56	61.8	0	2	292	0.00	30.017 
11:10	78.6	78.6	80.0	55	61.1	1	2	292	0.00	30.017 
11:15	79.2	79.2	80.4	53	60.6	0	1	292	0.00	30.019 
11:20	79.9	79.9	80.8	51	60.1	0	3	292	0.00	30.019 
11:25	80.5	80.5	81.5	52	61.2	0	2	292	0.00	30.019 
11:30	79.6	79.6	80.5	50	59.3	1	3	292	0.00	30.023 
11:35	79.2	79.2	80.4	54	61.1	0	3	292	0.00	30.023 
11:40	79.0	79.0	80.2	53	60.4	0	2	292	0.00	30.023 
11:45	79.2	79.2	80.3	52	60.0	0	1	292	0.00	30.016 
11:50	79.6	79.6	80.7	53	60.9	0	1	292	0.00	30.016 
11:55	80.3	80.3	81.4	53	61.6	1	3	292	0.00	30.016 
12:00	80.9	80.9	81.6	50	60.5	1	4	292	0.00	30.010 
12:05	80.5	80.5	81.3	50	60.1	0	2	90	0.00	30.010 
12:10	80.1	80.1	81.0	51	60.3	0	1	90	0.00	30.010 
12:15	79.9	79.9	80.8	51	60.1	1	4	90	0.00	30.009 
12:20	79.6	79.6	80.8	54	61.5	0	1	90	0.00	30.009 
12:25	79.8	79.8	80.9	53	61.1	1	4	90	0.00	30.009 
12:30	79.8	79.8	80.8	52	60.6	0	2	90	0.00	30.013 
12:35	80.7	80.7	81.7	52	61.4	0	1	90	0.00	30.013 
12:40	81.4	81.4	82.1	50	60.9	0	1	90	0.00	30.013 
12:45	81.2	81.2	81.6	47	59.0	1	2	90	0.00	30.015 
12:50	80.7	80.7	81.3	49	59.7	0	1	90	0.00	30.015 
12:55	80.1	80.1	80.8	49	59.2	0	2	90	0.00	30.015 
13:00	79.9	79.9	80.6	49	59.0	2	4	90	0.00	30.017 
13:05	80.1	80.1	81.0	51	60.3	1	3	270	0.00	30.017 
13:10	80.1	80.1	80.9	50	59.8	0	2	270	0.00	30.017 
13:15	79.8	79.8	80.6	50	59.5	0	2	270	0.00	30.016 
13:20	80.3	80.3	81.1	50	59.9	1	4	270	0.00	30.016 
13:25	81.1	81.1	81.4	46	58.3	1	4	270	0.00	30.016 
13:30	82.0	82.0	82.3	47	59.8	0	1	270	0.00	30.009 
13:35	82.8	82.8	82.7	44	58.6	1	2	270	0.00	30.009 
13:40	83.4	83.4	83.2	43	58.5	0	2	270	0.00	30.009 
13:45	83.8	83.8	83.1	40	56.9	1	3	270	0.00	30.005 
13:50	84.5	84.5	84.9	46	61.4	0	2	292	0.00	30.005 
13:55	85.1	85.1	84.6	41	58.7	0	1	292	0.00	30.005 
14:00	84.5	84.5	84.1	42	58.9	0	2	292	0.00	30.000 
14:05	84.0	84.0	83.4	41	57.7	1	4	292	0.00	30.000 
14:10	82.6	82.6	82.4	43	57.8	1	3	292	0.00	30.000 
14:15	82.6	82.6	82.5	44	58.4	0	2	292	0.00	30.003 
14:20	82.8	82.8	82.4	42	57.3	0	1	292	0.00	30.003 
14:25	83.0	83.0	82.5	41	56.8	0	2	292	0.00	30.003 
14:30	83.0	83.0	82.6	42	57.5	1	3	292	0.00	29.999 
14:35	83.4	83.4	83.0	42	57.9	0	3	292	0.00	29.999 
14:40	84.0	84.0	83.4	41	57.7	0	3	338	0.00	29.999 
14:45	84.1	84.1	83.6	41	57.8	1	4	292	0.00	30.002 
14:50	83.8	83.8	83.2	41	57.6	1	2	292	0.00	30.002 
14:55	83.8	83.8	83.2	41	57.6	0	2	292	0.00	30.002 
15:00	84.0	84.0	83.6	42	58.4	1	3	248	0.00	30.005 
15:05	84.5	84.5	83.8	40	57.5	1	2	225	0.00	30.005 
15:10	84.5	84.5	83.8	40	57.5	1	3	248	0.00	30.005 
15:15	84.5	84.5	84.1	42	58.9	0	1	248	0.00	29.999 
15:20	84.7	84.7	84.2	41	58.4	0	4	248	0.00	29.999 
15:25	84.7	84.7	84.2	41	58.4	1	3	292	0.00	29.999 
15:30	84.7	84.7	83.8	39	57.0	1	2	292	0.00	29.998 
15:35	84.3	84.3	83.8	41	58.0	0	2	292	0.00	29.998 
15:40	83.6	83.6	83.2	42	58.0	0	2	292	0.00	29.998 
15:45	82.8	82.8	82.4	42	57.3	0	1	292	0.00	29.994 
15:50	82.2	82.2	82.0	43	57.4	0	1	292	0.00	29.994 
15:55	82.6	82.6	82.4	43	57.8	0	2	292	0.00	29.994 
16:00	83.4	83.4	83.2	43	58.5	0	2	292	0.00	29.990 
16:05	83.8	83.8	83.2	41	57.6	0	2	292	0.00	29.990 
16:10	82.8	82.8	82.9	45	59.3	0	2	292	0.00	29.990 
16:15	82.6	82.6	82.4	43	57.8	0	2	292	0.00	29.989 
16:20	82.2	82.2	82.1	44	58.1	0	2	292	0.00	29.989 
16:25	81.6	81.6	81.5	43	56.9	0	1	292	0.00	29.989 
16:30	81.4	81.4	81.5	45	58.0	0	3	292	0.00	29.987 
16:35	81.8	81.8	81.6	43	57.1	1	3	292	0.00	29.987 
16:40	81.8	81.8	81.8	44	57.7	0	1	292	0.00	29.987 
16:45	82.0	82.0	81.8	43	57.3	0	2	292	0.00	29.985 
16:50	82.6	82.6	82.2	42	57.2	1	3	292	0.00	29.985 
16:55	83.0	83.0	82.6	42	57.5	0	1	292	0.00	29.985 
17:00	83.0	83.0	82.6	42	57.5	0	2	292	0.00	29.984 
17:05	82.8	82.8	82.4	42	57.3	0	1	292	0.00	29.984 
17:10	83.0	83.0	82.6	42	57.5	0	4	292	0.00	29.984 
17:15	83.4	83.4	82.9	41	57.2	1	3	292	0.00	29.981 
17:20	83.4	83.4	82.7	40	56.5	1	4	292	0.00	29.981 
17:25	83.2	83.2	82.8	42	57.7	0	1	292	0.00	29.981 
17:30	83.0	83.0	82.8	43	58.2	0	1	292	0.00	29.981 
17:35	82.8	82.8	82.4	42	57.3	0	2	292	0.00	29.981 
17:40	82.4	82.4	82.0	42	57.0	0	1	292	0.00	29.981 
17:45	82.2	82.2	82.0	43	57.4	0	1	292	0.00	29.983 
17:50	82.6	82.6	82.1	41	56.5	0	2	292	0.00	29.983 
17:55	83.0	83.0	82.8	43	58.2	0	2	292	0.00	29.983 
18:00	83.2	83.2	82.8	42	57.7	1	3	90	0.00	29.978 
18:05	82.8	82.8	82.6	43	58.0	0	1	90	0.00	29.978 
18:10	82.6	82.6	82.5	44	58.4	0	1	90	0.00	29.978 
18:15	82.4	82.4	82.3	44	58.3	0	2	90	0.00	29.978 
18:20	82.0	82.0	82.1	45	58.5	0	1	90	0.00	29.978 
18:25	81.8	81.8	82.0	46	59.0	0	1	90	0.00	29.978 
18:30	81.6	81.6	81.8	46	58.8	0	2	90	0.00	29.980 
18:35	81.2	81.2	81.3	45	57.8	0	1	90	0.00	29.980 
18:40	81.2	81.2	81.3	45	57.8	0	1	90	0.00	29.980 
18:45	81.1	81.1	81.3	45	57.7	0	2	90	0.00	29.981 
18:50	80.9	80.9	81.2	46	58.2	0	1	90	0.00	29.981 
18:55	80.5	80.5	80.8	46	57.8	0	2	90	0.00	29.981 
19:00	80.3	80.3	80.8	47	58.2	0	1	90	0.00	29.984 
19:05	80.1	80.1	80.7	48	58.6	0	1	90	0.00	29.984 
19:10	80.1	80.1	80.7	48	58.6	0	1	90	0.00	29.984 
19:15	79.9	79.9	80.6	49	59.0	0	1	90	0.00	29.981 
19:20	79.6	79.6	80.5	50	59.3	0	0	---	0.00	29.981 
19:25	79.6	79.6	80.5	50	59.3	0	1	90	0.00	29.981 
19:30	79.4	79.4	80.4	51	59.7	0	0	---	0.00	29.983 
19:35	79.2	79.2	80.3	52	60.0	0	0	---	0.00	29.983 
19:40	78.8	78.8	79.9	52	59.7	0	0	---	0.00	29.983 
19:45	78.6	78.6	79.8	53	60.0	0	0	---	0.00	29.984 
19:50	78.3	78.3	79.7	54	60.3	0	0	---	0.00	29.984 
19:55	77.9	77.9	79.3	54	59.9	0	0	---	0.00	29.984 
20:00	77.6	77.6	79.2	55	60.1	0	0	---	0.00	29.986 
20:05	77.2	77.2	78.9	56	60.3	0	0	---	0.00	29.986 
20:10	76.8	76.8	78.6	57	60.4	0	0	---	0.00	29.986 
20:15	76.5	76.5	78.4	58	60.6	0	0	---	0.00	29.982 
20:20	76.0	76.0	78.0	58	60.1	0	0	---	0.00	29.982 
20:25	75.6	75.6	77.8	59	60.2	0	0	---	0.00	29.982 
20:30	75.3	75.3	77.5	60	60.4	0	0	---	0.00	29.987 
20:35	74.7	74.7	74.7	62	60.8	0	0	---	0.00	29.987 
20:40	74.4	74.4	74.4	62	60.5	0	0	---	0.00	29.987 
20:45	74.0	74.0	74.0	63	60.6	0	0	---	0.00	29.993 
20:50	73.5	73.5	73.5	64	60.6	0	0	---	0.00	29.993 
20:55	73.2	73.2	73.2	65	60.7	0	0	---	0.00	29.993 
21:00	72.7	72.7	72.7	66	60.7	0	0	---	0.00	29.996 
21:05	72.5	72.5	72.5	67	60.9	0	0	---	0.00	29.996 
21:10	72.1	72.1	72.1	68	60.9	0	0	---	0.00	29.996 
21:15	71.8	71.8	71.8	69	61.1	0	0	---	0.00	30.000 
21:20	71.5	71.5	71.5	70	61.2	0	0	---	0.00	30.000 
21:25	71.1	71.1	71.1	71	61.2	0	0	---	0.00	30.000 
21:30	70.9	70.9	70.9	72	61.4	0	0	---	0.00	30.002 
21:35	70.6	70.6	70.6	73	61.5	0	0	---	0.00	30.002 
21:40	70.4	70.4	70.4	74	61.7	0	0	---	0.00	30.002 
21:45	70.3	70.3	70.3	75	62.0	0	0	---	0.00	30.008 
21:50	69.9	69.9	69.9	76	62.0	0	0	---	0.00	30.008 
21:55	69.8	69.8	69.8	76	61.9	0	0	---	0.00	30.008 
22:00	69.6	69.6	69.6	77	62.1	0	0	---	0.00	30.015 
22:05	69.4	69.4	69.4	78	62.2	0	0	---	0.00	30.015 
22:10	69.3	69.3	69.3	79	62.5	0	0	---	0.00	30.015 
22:15	69.1	69.1	69.1	79	62.3	0	0	---	0.00	30.011 
22:20	69.1	69.1	69.1	80	62.7	0	0	---	0.00	30.011 
22:25	68.9	68.9	68.9	80	62.5	0	0	---	0.00	30.011 
22:30	68.8	68.8	68.8	80	62.4	0	0	---	0.00	30.010 
22:35	68.8	68.8	68.8	81	62.7	0	0	---	0.00	30.010 
22:40	68.6	68.6	68.6	81	62.5	0	0	---	0.00	30.010 
22:45	68.6	68.6	68.6	81	62.5	0	0	---	0.00	30.012 
22:50	68.4	68.4	68.4	82	62.7	0	0	---	0.00	30.012 
22:55	68.4	68.4	68.4	82	62.7	0	0	---	0.00	30.012 
23:00	68.4	68.4	68.4	82	62.7	0	0	---	0.00	30.011 
23:05	68.3	68.3	68.3	82	62.6	0	0	---	0.00	30.011 
23:10	68.3	68.3	68.3	83	62.9	0	0	---	0.00	30.011 
23:15	68.3	68.3	68.3	83	62.9	0	0	---	0.00	30.012 
23:20	68.1	68.1	68.1	83	62.7	0	0	---	0.00	30.012 
23:25	67.9	67.9	67.9	84	62.9	0	0	---	0.00	30.012 
23:30	67.9	67.9	67.9	84	62.9	0	0	---	0.00	30.012 
23:35	67.8	67.8	67.8	84	62.8	0	0	---	0.00	30.012 
23:40	67.6	67.6	67.6	84	62.6	0	0	---	0.00	30.012 
23:45	67.4	67.4	67.4	84	62.4	0	0	---	0.00	30.013 
23:50	67.3	67.3	67.3	85	62.6	0	0	---	0.00	30.013 
23:55	67.1	67.1	67.1	85	62.4	0	0	---	0.00	30.013 

CoCoRaHS
IN-AL-39
A2 Web Hosting
Creative Commons License
GoDaddy
search engine by freefind advanced

loaded 2018-11-15 03:07:07 • last modified 2010-11-18 10:43:29
Privacy PolicyDisclaimer
• wx.awcolley.com is powered by PmWiki v.2002016 •
• all content (unless otherwise noted) © 2018 A W Colley